createdAt,value
2023-04-08T00:00:25.073Z,7.63
2023-04-08T00:03:18.637Z,7.58
2023-04-08T00:05:52.600Z,7.53
2023-04-08T00:08:26.084Z,7.52
2023-04-08T00:10:59.544Z,7.51
2023-04-08T00:13:32.965Z,7.46
2023-04-08T00:16:08.638Z,7.43
2023-04-08T00:18:41.909Z,7.44
2023-04-08T00:21:16.928Z,7.44
2023-04-08T00:23:50.561Z,7.40
2023-04-08T00:26:23.953Z,7.39
2023-04-08T00:28:57.554Z,7.38
2023-04-08T00:31:31.451Z,7.36
2023-04-08T00:34:05.645Z,7.33
2023-04-08T00:36:39.869Z,7.27
2023-04-08T00:39:13.750Z,7.25
2023-04-08T00:41:47.324Z,7.28
2023-04-08T00:44:20.966Z,7.30
2023-04-08T00:46:54.465Z,7.30
2023-04-08T00:49:28.721Z,7.31
2023-04-08T00:52:02.573Z,7.34
2023-04-08T00:54:38.158Z,7.34
2023-04-08T00:57:11.996Z,7.35
2023-04-08T00:59:46.594Z,7.36
2023-04-08T01:02:27.877Z,7.38
2023-04-08T01:05:05.192Z,7.40
2023-04-08T01:07:43.517Z,7.41
2023-04-08T01:10:20.044Z,7.44
2023-04-08T01:12:56.936Z,7.47
2023-04-08T01:15:32.576Z,7.45
2023-04-08T01:18:10.894Z,7.41
2023-04-08T01:20:46.047Z,7.38
2023-04-08T01:23:27.615Z,7.32
2023-04-08T01:26:02.019Z,7.26
2023-04-08T01:28:37.016Z,7.21
2023-04-08T01:31:12.079Z,7.12
2023-04-08T01:33:47.126Z,7.02
2023-04-08T01:36:22.320Z,6.92
2023-04-08T01:38:56.358Z,6.84
2023-04-08T01:41:31.620Z,6.76
2023-04-08T01:44:06.432Z,6.70
2023-04-08T01:46:41.098Z,6.62
2023-04-08T01:49:16.183Z,6.55
2023-04-08T01:51:50.367Z,6.52
2023-04-08T01:54:25.213Z,6.50
2023-04-08T01:56:59.791Z,6.48
2023-04-08T01:59:37.030Z,6.47
2023-04-08T02:02:12.882Z,6.45
2023-04-08T02:04:46.730Z,6.42
2023-04-08T02:07:20.811Z,6.39
2023-04-08T02:09:54.274Z,6.33
2023-04-08T02:12:29.328Z,6.28
2023-04-08T02:15:02.932Z,6.22
2023-04-08T02:17:48.057Z,6.17
2023-04-08T02:20:25.103Z,6.14
2023-04-08T02:23:04.045Z,6.12
2023-04-08T02:25:40.346Z,6.10
2023-04-08T02:28:16.027Z,6.08
2023-04-08T02:30:53.094Z,6.06
2023-04-08T02:33:27.552Z,6.03
2023-04-08T02:36:02.457Z,5.99
2023-04-08T02:38:35.967Z,5.93
2023-04-08T02:41:09.766Z,5.88
2023-04-08T02:43:43.365Z,5.83
2023-04-08T02:46:17.257Z,5.80
2023-04-08T02:48:51.558Z,5.76
2023-04-08T02:51:26.421Z,5.75
2023-04-08T02:54:00.178Z,5.72
2023-04-08T02:56:34.405Z,5.68
2023-04-08T02:59:08.076Z,5.64
2023-04-08T03:01:41.559Z,5.60
2023-04-08T03:04:15.130Z,5.56
2023-04-08T03:06:48.795Z,5.52
2023-04-08T03:09:23.069Z,5.48
2023-04-08T03:11:56.581Z,5.45
2023-04-08T03:14:30.365Z,5.44
2023-04-08T03:17:04.002Z,5.42
2023-04-08T03:19:37.657Z,5.40
2023-04-08T03:22:11.475Z,5.38
2023-04-08T03:24:45.209Z,5.35
2023-04-08T03:27:18.596Z,5.32
2023-04-08T03:29:53.780Z,5.28
2023-04-08T03:32:27.653Z,5.24
2023-04-08T03:35:01.164Z,5.19
2023-04-08T03:37:34.726Z,5.16
2023-04-08T03:40:10.088Z,5.16
2023-04-08T03:42:43.795Z,5.17
2023-04-08T03:45:17.152Z,5.18
2023-04-08T03:47:51.204Z,5.16
2023-04-08T03:50:24.976Z,5.15
2023-04-08T03:52:58.636Z,5.13
2023-04-08T03:55:32.603Z,5.08
2023-04-08T03:58:06.644Z,5.04
2023-04-08T04:00:41.942Z,5.02
2023-04-08T04:03:16.103Z,5.03
2023-04-08T04:05:50.313Z,5.05
2023-04-08T04:08:24.102Z,5.06
2023-04-08T04:10:57.633Z,5.05
2023-04-08T04:13:31.286Z,5.04
2023-04-08T04:16:04.880Z,5.02
2023-04-08T04:18:38.395Z,5.00
2023-04-08T04:21:12.191Z,4.98
2023-04-08T04:23:46.277Z,5.00
2023-04-08T04:26:19.970Z,5.04
2023-04-08T04:28:53.774Z,5.09
2023-04-08T04:31:28.217Z,5.15
2023-04-08T04:34:01.978Z,5.19
2023-04-08T04:36:35.977Z,5.24
2023-04-08T04:39:09.721Z,5.29
2023-04-08T04:41:44.697Z,5.36
2023-04-08T04:44:18.380Z,5.44
2023-04-08T04:46:52.039Z,5.45
2023-04-08T04:49:25.855Z,5.46
2023-04-08T04:51:59.287Z,5.48
2023-04-08T04:54:32.653Z,5.54
2023-04-08T04:57:06.423Z,5.80
2023-04-08T04:59:40.328Z,6.09
2023-04-08T05:02:14.189Z,6.36
2023-04-08T05:04:47.895Z,6.74
2023-04-08T05:07:22.122Z,7.07
2023-04-08T05:09:55.808Z,7.33
2023-04-08T05:12:30.244Z,7.48
2023-04-08T05:15:03.954Z,7.45
2023-04-08T05:17:37.911Z,7.43
2023-04-08T05:20:12.876Z,7.43
2023-04-08T05:22:46.530Z,7.42
2023-04-08T05:25:20.367Z,7.38
2023-04-08T05:27:53.897Z,7.35
2023-04-08T05:30:27.824Z,7.37
2023-04-08T05:33:01.505Z,7.47
2023-04-08T05:35:35.762Z,7.56
2023-04-08T05:38:09.314Z,7.59
2023-04-08T05:40:43.237Z,7.62
2023-04-08T05:43:16.930Z,7.65
2023-04-08T05:45:50.641Z,7.72
2023-04-08T05:48:24.583Z,8.08
2023-04-08T05:50:57.832Z,9.21
2023-04-08T05:53:31.264Z,10.41
2023-04-08T05:56:05.163Z,11.58
2023-04-08T05:58:38.936Z,12.09
2023-04-08T06:01:12.455Z,12.03
2023-04-08T06:03:46.493Z,11.94
2023-04-08T06:06:20.541Z,11.87
2023-04-08T06:08:54.046Z,11.99
2023-04-08T06:11:28.088Z,12.18
2023-04-08T06:14:02.059Z,12.48
2023-04-08T06:16:35.625Z,13.18
2023-04-08T06:19:09.268Z,13.87
2023-04-08T06:21:43.161Z,14.62
2023-04-08T06:24:16.859Z,15.34
2023-04-08T06:26:50.669Z,16.51
2023-04-08T06:29:24.363Z,17.98
2023-04-08T06:31:58.175Z,19.39
2023-04-08T06:34:32.449Z,20.89
2023-04-08T06:37:06.644Z,22.46
2023-04-08T06:39:40.478Z,23.95
2023-04-08T06:42:13.998Z,25.23
2023-04-08T06:44:59.182Z,26.48
2023-04-08T06:47:32.826Z,27.64
2023-04-08T06:50:07.152Z,28.70
2023-04-08T06:52:40.767Z,29.56
2023-04-08T06:55:14.731Z,30.37
2023-04-08T06:57:48.254Z,31.16
2023-04-08T07:00:22.518Z,31.86
2023-04-08T07:02:56.296Z,32.61
2023-04-08T07:05:30.151Z,33.14
2023-04-08T07:08:03.867Z,33.73
2023-04-08T07:10:38.011Z,34.31
2023-04-08T07:13:12.599Z,34.83
2023-04-08T07:15:46.176Z,35.20
2023-04-08T07:18:20.054Z,35.70
2023-04-08T07:20:56.030Z,36.11
2023-04-08T07:23:29.221Z,36.36
2023-04-08T07:26:07.353Z,36.62
2023-04-08T07:28:40.537Z,36.64
2023-04-08T07:31:17.112Z,36.73
2023-04-08T07:33:50.863Z,37.08
2023-04-08T07:36:24.281Z,37.31
2023-04-08T07:38:57.868Z,37.52
2023-04-08T07:41:31.762Z,37.68
2023-04-08T07:44:05.556Z,37.92
2023-04-08T07:46:41.809Z,37.31
2023-04-08T07:49:15.930Z,36.27
2023-04-08T07:51:49.388Z,35.99
2023-04-08T07:54:22.883Z,36.22
2023-04-08T07:56:57.303Z,36.65
2023-04-08T07:59:31.302Z,37.40
2023-04-08T08:02:05.341Z,38.19
2023-04-08T08:04:39.204Z,38.72
2023-04-08T08:07:13.164Z,39.14
2023-04-08T08:09:46.926Z,39.53
2023-04-08T08:12:20.973Z,40.22
2023-04-08T08:14:55.190Z,40.61
2023-04-08T08:17:31.697Z,40.87
2023-04-08T08:20:06.258Z,40.77
2023-04-08T08:22:50.780Z,40.80
2023-04-08T08:25:30.160Z,40.51
2023-04-08T08:28:03.674Z,40.64
2023-04-08T08:30:38.738Z,41.22
2023-04-08T08:33:12.643Z,41.73
2023-04-08T08:35:46.892Z,41.67
2023-04-08T08:38:20.787Z,41.01
2023-04-08T08:41:00.109Z,39.03
2023-04-08T08:43:34.967Z,36.38
2023-04-08T08:46:12.539Z,33.80
2023-04-08T08:48:46.382Z,31.34
2023-04-08T08:51:20.793Z,30.23
2023-04-08T08:53:54.516Z,30.76
2023-04-08T08:56:29.180Z,32.03
2023-04-08T08:59:02.704Z,33.60
2023-04-08T09:01:38.039Z,33.71
2023-04-08T09:04:14.651Z,33.01
2023-04-08T09:06:50.428Z,33.14
2023-04-08T09:09:24.951Z,32.77
2023-04-08T09:12:06.763Z,31.35
2023-04-08T09:14:40.771Z,30.06
2023-04-08T09:17:14.784Z,29.35
2023-04-08T09:20:17.537Z,29.02
2023-04-08T09:23:02.015Z,28.46
2023-04-08T09:25:36.181Z,27.15
2023-04-08T09:28:22.851Z,26.20
2023-04-08T09:30:56.582Z,25.37
2023-04-08T09:33:36.259Z,24.64
2023-04-08T09:36:10.385Z,23.98
2023-04-08T09:38:44.441Z,23.40
2023-04-08T09:41:20.982Z,22.96
2023-04-08T09:43:56.457Z,22.54
2023-04-08T09:46:34.667Z,22.12
2023-04-08T09:49:16.048Z,22.17
2023-04-08T09:52:01.283Z,22.99
2023-04-08T09:54:46.292Z,24.77
2023-04-08T09:57:34.092Z,27.03
2023-04-08T10:00:15.229Z,28.58
2023-04-08T10:02:57.856Z,29.41
2023-04-08T10:05:32.654Z,30.31
2023-04-08T10:08:07.088Z,30.79
2023-04-08T10:10:43.205Z,31.94
2023-04-08T10:13:17.273Z,33.06
2023-04-08T10:15:51.201Z,34.42
2023-04-08T10:18:38.718Z,35.42
2023-04-08T10:21:35.066Z,35.22
2023-04-08T10:24:13.070Z,35.15
2023-04-08T10:26:49.141Z,35.26
2023-04-08T10:29:46.745Z,33.83
2023-04-08T10:32:42.467Z,31.95
2023-04-08T10:35:16.205Z,30.23
2023-04-08T10:37:50.104Z,29.28
2023-04-08T10:40:24.221Z,29.10
2023-04-08T10:43:00.190Z,29.04
2023-04-08T10:45:33.494Z,30.24
2023-04-08T10:48:24.059Z,31.49
2023-04-08T10:50:58.988Z,31.69
2023-04-08T10:53:34.272Z,31.74
2023-04-08T10:56:15.373Z,32.65
2023-04-08T10:58:56.841Z,33.78
2023-04-08T11:01:39.888Z,33.80
2023-04-08T11:04:19.105Z,33.72
2023-04-08T11:06:52.926Z,33.77
2023-04-08T11:09:26.901Z,33.57
2023-04-08T11:12:00.433Z,33.10
2023-04-08T11:14:34.605Z,33.07
2023-04-08T11:17:09.348Z,33.43
2023-04-08T11:19:43.994Z,34.12
2023-04-08T11:22:18.190Z,35.23
2023-04-08T11:24:52.202Z,35.99
2023-04-08T11:27:26.652Z,36.65
2023-04-08T11:30:00.719Z,36.43
2023-04-08T11:32:35.557Z,35.95
2023-04-08T11:35:10.524Z,36.14
2023-04-08T11:37:45.222Z,36.04
2023-04-08T11:40:24.873Z,36.10
2023-04-08T11:42:58.776Z,35.09
2023-04-08T11:45:40.218Z,33.35
2023-04-08T11:48:15.565Z,31.86
2023-04-08T11:50:51.391Z,30.95
2023-04-08T11:53:27.628Z,30.42
2023-04-08T11:56:17.673Z,29.42
2023-04-08T11:58:52.075Z,28.29
2023-04-08T12:01:26.123Z,27.27
2023-04-08T12:04:04.320Z,26.35
2023-04-08T12:06:36.207Z,25.56
2023-04-08T12:09:09.673Z,24.92
2023-04-08T12:11:43.170Z,24.47
2023-04-08T12:14:16.446Z,25.41
2023-04-08T12:16:50.115Z,26.53
2023-04-08T12:19:24.941Z,27.81
2023-04-08T12:21:58.885Z,29.29
2023-04-08T12:24:32.296Z,30.59
2023-04-08T12:27:06.374Z,31.56
2023-04-08T12:29:40.295Z,32.20
2023-04-08T12:32:15.404Z,32.32
2023-04-08T12:34:49.000Z,32.01
2023-04-08T12:37:22.611Z,31.06
2023-04-08T12:39:56.345Z,30.72
2023-04-08T12:42:29.775Z,31.16
2023-04-08T12:45:03.532Z,30.62
2023-04-08T12:47:37.101Z,29.61
2023-04-08T12:50:12.100Z,29.52
2023-04-08T12:52:45.938Z,29.89
2023-04-08T12:55:19.816Z,30.34
2023-04-08T12:57:53.546Z,31.04
2023-04-08T13:00:26.990Z,31.44
2023-04-08T13:03:00.728Z,31.53
2023-04-08T13:05:43.196Z,30.65
2023-04-08T13:08:17.982Z,29.53
2023-04-08T13:10:52.395Z,28.81
2023-04-08T13:13:27.018Z,28.13
2023-04-08T13:16:00.678Z,27.53
2023-04-08T13:18:34.117Z,27.21
2023-04-08T13:21:08.858Z,27.66
2023-04-08T13:23:42.639Z,27.93
2023-04-08T13:26:16.288Z,27.59
2023-04-08T13:28:56.716Z,27.08
2023-04-08T13:31:31.876Z,26.52
2023-04-08T13:34:05.401Z,26.11
2023-04-08T13:36:38.849Z,25.77
2023-04-08T13:39:13.196Z,25.45
2023-04-08T13:41:46.570Z,25.16
2023-04-08T13:44:20.097Z,25.03
2023-04-08T13:46:53.501Z,24.72
2023-04-08T13:49:28.090Z,24.32
2023-04-08T13:52:02.292Z,23.98
2023-04-08T13:54:36.747Z,23.69
2023-04-08T13:57:10.320Z,23.37
2023-04-08T13:59:44.845Z,23.12
2023-04-08T14:02:18.759Z,22.91
2023-04-08T14:04:52.768Z,22.73
2023-04-08T14:07:26.169Z,22.65
2023-04-08T14:10:00.313Z,22.41
2023-04-08T14:12:33.866Z,22.18
2023-04-08T14:15:08.884Z,22.03
2023-04-08T14:17:43.014Z,21.85
2023-04-08T14:20:16.494Z,21.69
2023-04-08T14:22:50.222Z,21.51
2023-04-08T14:25:24.039Z,21.34
2023-04-08T14:27:58.723Z,21.18
2023-04-08T14:30:32.719Z,21.00
2023-04-08T14:33:06.683Z,20.84
2023-04-08T14:35:40.768Z,20.69
2023-04-08T14:38:14.695Z,20.38
2023-04-08T14:40:48.375Z,20.20
2023-04-08T14:43:22.095Z,20.11
2023-04-08T14:45:55.723Z,19.96
2023-04-08T14:48:30.997Z,19.89
2023-04-08T14:51:05.007Z,19.88
2023-04-08T14:53:38.698Z,19.84
2023-04-08T14:56:13.089Z,19.80
2023-04-08T14:58:46.296Z,19.69
2023-04-08T15:01:19.997Z,19.49
2023-04-08T15:03:53.642Z,19.24
2023-04-08T15:06:28.026Z,19.06
2023-04-08T15:09:01.624Z,18.93
2023-04-08T15:11:35.133Z,18.89
2023-04-08T15:14:08.654Z,18.85
2023-04-08T15:16:42.415Z,18.79
2023-04-08T15:19:16.259Z,18.74
2023-04-08T15:21:50.260Z,18.70
2023-04-08T15:24:23.930Z,18.63
2023-04-08T15:26:57.964Z,18.54
2023-04-08T15:29:31.877Z,18.45
2023-04-08T15:32:05.400Z,18.33
2023-04-08T15:34:38.980Z,18.16
2023-04-08T15:37:12.370Z,18.04
2023-04-08T15:39:46.443Z,17.95
2023-04-08T15:42:20.708Z,17.88
2023-04-08T15:44:54.080Z,17.81
2023-04-08T15:47:27.814Z,17.74
2023-04-08T15:50:01.826Z,17.67
2023-04-08T15:52:36.040Z,17.61
2023-04-08T15:55:11.553Z,17.54
2023-04-08T15:57:45.147Z,17.47
2023-04-08T16:00:19.934Z,17.41
2023-04-08T16:02:53.689Z,17.35
2023-04-08T16:05:30.062Z,17.27
2023-04-08T16:08:04.792Z,17.20
2023-04-08T16:10:38.352Z,17.17
2023-04-08T16:13:12.049Z,17.15
2023-04-08T16:15:46.026Z,17.09
2023-04-08T16:18:19.662Z,17.00
2023-04-08T16:20:53.878Z,16.94
2023-04-08T16:23:27.525Z,16.86
2023-04-08T16:26:01.751Z,16.79
2023-04-08T16:28:34.959Z,16.73
2023-04-08T16:31:08.644Z,16.65
2023-04-08T16:33:42.185Z,16.56
2023-04-08T16:36:16.054Z,16.47
2023-04-08T16:38:49.564Z,16.39
2023-04-08T16:41:23.520Z,16.34
2023-04-08T16:43:58.083Z,16.30
2023-04-08T16:46:32.394Z,16.27
2023-04-08T16:49:06.593Z,16.21
2023-04-08T16:51:40.637Z,16.16
2023-04-08T16:54:14.279Z,16.12
2023-04-08T16:56:47.899Z,16.09
2023-04-08T16:59:21.645Z,16.04
2023-04-08T17:01:55.164Z,15.98
2023-04-08T17:04:28.893Z,15.92
2023-04-08T17:07:03.683Z,15.88
2023-04-08T17:09:37.219Z,15.84
2023-04-08T17:12:11.357Z,15.80
2023-04-08T17:14:45.121Z,15.77
2023-04-08T17:17:19.286Z,15.73
2023-04-08T17:19:53.425Z,15.68
2023-04-08T17:22:27.770Z,15.65
2023-04-08T17:25:01.526Z,15.59
2023-04-08T17:27:35.179Z,15.51
2023-04-08T17:30:11.551Z,15.44
2023-04-08T17:32:46.288Z,15.40
2023-04-08T17:35:19.958Z,15.37
2023-04-08T17:37:54.030Z,15.31
2023-04-08T17:40:28.312Z,15.25
2023-04-08T17:43:01.962Z,15.18
2023-04-08T17:45:35.752Z,15.11
2023-04-08T17:48:10.266Z,15.07
2023-04-08T17:50:43.848Z,15.04
2023-04-08T17:53:17.757Z,14.99
2023-04-08T17:55:51.677Z,14.93
2023-04-08T17:58:26.873Z,14.86
2023-04-08T18:01:01.033Z,14.81
2023-04-08T18:03:34.774Z,14.80
2023-04-08T18:06:10.720Z,14.75
2023-04-08T18:08:44.426Z,14.69
2023-04-08T18:11:17.989Z,14.64
2023-04-08T18:13:52.828Z,14.61
2023-04-08T18:16:26.810Z,14.56
2023-04-08T18:19:00.492Z,14.51
2023-04-08T18:21:34.492Z,14.47
2023-04-08T18:24:09.201Z,14.42
2023-04-08T18:26:43.936Z,14.36
2023-04-08T18:29:19.594Z,14.27
2023-04-08T18:31:53.775Z,14.16
2023-04-08T18:34:27.428Z,14.05
2023-04-08T18:37:01.414Z,13.96
2023-04-08T18:39:35.713Z,13.84
2023-04-08T18:42:09.133Z,13.74
2023-04-08T18:44:43.184Z,13.67
2023-04-08T18:47:17.503Z,13.59
2023-04-08T18:49:51.286Z,13.50
2023-04-08T18:52:25.433Z,13.41
2023-04-08T18:55:00.362Z,13.35
2023-04-08T18:57:34.886Z,13.25
2023-04-08T19:00:11.096Z,13.17
2023-04-08T19:02:44.481Z,13.10
2023-04-08T19:05:18.191Z,13.07
2023-04-08T19:07:52.248Z,13.06
2023-04-08T19:10:26.926Z,13.06
2023-04-08T19:13:00.942Z,13.10
2023-04-08T19:15:34.784Z,13.12
2023-04-08T19:18:08.198Z,13.15
2023-04-08T19:20:41.950Z,13.16
2023-04-08T19:23:16.558Z,13.17
2023-04-08T19:25:50.769Z,13.18
2023-04-08T19:28:24.660Z,13.18
2023-04-08T19:30:58.183Z,13.17
2023-04-08T19:33:32.228Z,13.15
2023-04-08T19:36:06.255Z,13.12
2023-04-08T19:38:40.041Z,13.10
2023-04-08T19:41:13.863Z,13.09
2023-04-08T19:43:48.337Z,13.09
2023-04-08T19:46:21.855Z,13.10
2023-04-08T19:48:58.944Z,13.11
2023-04-08T19:51:33.152Z,13.11
2023-04-08T19:54:07.085Z,13.10
2023-04-08T19:56:40.945Z,13.09
2023-04-08T19:59:14.668Z,13.06
2023-04-08T20:01:48.600Z,13.03
2023-04-08T20:04:22.139Z,13.02
2023-04-08T20:06:56.455Z,13.00
2023-04-08T20:09:30.199Z,12.99
2023-04-08T20:12:06.325Z,13.00
2023-04-08T20:14:45.399Z,13.01
2023-04-08T20:17:21.270Z,13.00
2023-04-08T20:19:55.146Z,12.99
2023-04-08T20:22:28.757Z,12.99
2023-04-08T20:25:02.586Z,12.97
2023-04-08T20:27:36.901Z,12.94
2023-04-08T20:30:12.529Z,12.90
2023-04-08T20:32:46.650Z,12.87
2023-04-08T20:35:21.426Z,12.85
2023-04-08T20:37:54.773Z,12.82
2023-04-08T20:40:28.609Z,12.84
2023-04-08T20:43:02.764Z,12.86
2023-04-08T20:45:38.134Z,12.87
2023-04-08T20:48:12.184Z,12.86
2023-04-08T20:50:46.530Z,12.87
2023-04-08T20:53:20.660Z,12.85
2023-04-08T20:55:54.175Z,12.81
2023-04-08T20:58:27.874Z,12.77
2023-04-08T21:01:02.555Z,12.74
2023-04-08T21:03:36.080Z,12.71
2023-04-08T21:06:09.972Z,12.70
2023-04-08T21:08:43.576Z,12.71
2023-04-08T21:11:17.523Z,12.68
2023-04-08T21:13:50.844Z,12.67
2023-04-08T21:16:24.241Z,12.65
2023-04-08T21:18:59.595Z,12.63
2023-04-08T21:21:33.314Z,12.60
2023-04-08T21:24:09.907Z,12.57
2023-04-08T21:26:44.089Z,12.53
2023-04-08T21:29:18.053Z,12.52
2023-04-08T21:31:51.816Z,12.51
2023-04-08T21:34:25.158Z,12.52
2023-04-08T21:36:58.761Z,12.52
2023-04-08T21:39:32.186Z,12.52
2023-04-08T21:42:06.415Z,12.49
2023-04-08T21:44:40.312Z,12.45
2023-04-08T21:47:14.608Z,12.41
2023-04-08T21:49:48.938Z,12.37
2023-04-08T21:52:22.160Z,12.33
2023-04-08T21:54:55.687Z,12.30
2023-04-08T21:57:29.298Z,12.28
2023-04-08T22:00:05.150Z,12.26
2023-04-08T22:02:49.404Z,12.27
2023-04-08T22:05:23.676Z,12.27
2023-04-08T22:07:57.712Z,12.26
2023-04-08T22:10:31.526Z,12.26
2023-04-08T22:13:05.232Z,12.24
2023-04-08T22:15:38.665Z,12.22
2023-04-08T22:18:12.132Z,12.22
2023-04-08T22:20:45.863Z,12.23
2023-04-08T22:23:19.405Z,12.24
2023-04-08T22:25:54.077Z,12.24
2023-04-08T22:28:28.004Z,12.25
2023-04-08T22:31:01.665Z,12.25
2023-04-08T22:33:35.801Z,12.24
2023-04-08T22:36:09.403Z,12.23
2023-04-08T22:38:42.723Z,12.23
2023-04-08T22:41:22.357Z,12.23
2023-04-08T22:43:55.839Z,12.23
2023-04-08T22:46:29.447Z,12.22
2023-04-08T22:49:03.093Z,12.19
2023-04-08T22:51:36.996Z,12.18
2023-04-08T22:54:11.583Z,12.16
2023-04-08T22:56:45.396Z,12.14
2023-04-08T22:59:19.366Z,12.12
2023-04-08T23:01:54.237Z,12.08
2023-04-08T23:04:28.409Z,12.06
2023-04-08T23:07:02.134Z,12.06
2023-04-08T23:09:35.352Z,12.07
2023-04-08T23:12:08.932Z,12.09
2023-04-08T23:14:42.661Z,12.08
2023-04-08T23:17:16.188Z,12.08
2023-04-08T23:19:49.841Z,12.07
2023-04-08T23:22:23.364Z,12.04
2023-04-08T23:24:56.870Z,12.02
2023-04-08T23:27:30.379Z,12.01
2023-04-08T23:30:06.009Z,12.01
2023-04-08T23:32:39.970Z,12.03
2023-04-08T23:35:14.101Z,12.02
2023-04-08T23:37:47.458Z,12.01
2023-04-08T23:40:21.249Z,12.00
2023-04-08T23:42:55.051Z,11.98
2023-04-08T23:45:28.644Z,11.95
2023-04-08T23:48:02.454Z,11.92
2023-04-08T23:50:35.765Z,11.92
2023-04-08T23:53:09.370Z,11.94
2023-04-08T23:55:43.357Z,11.94
2023-04-08T23:58:17.032Z,11.95
